Time;durP1;ratioP1;P1;durP2;ratioP2;P2;SDS_P1;SDS_P2;PMS_P1;PMS_P2;Temp;Humidity;BMP_temperature;BMP_pressure;BME280_temperature;BME280_humidity;BME280_pressure;Samples;Min_cycle;Max_cycle;Signal;HPM_P1;HPM_P2
2022/11/19 19:46:22;;;;;;;0.00;0.00;;;3.50;99.90;;;;;;5103031;27;20463;-75
2022/11/19 19:48:53;;;;;;;0.00;0.00;;;2.50;99.90;;;;;;5094039;28;20027;-75
2022/11/19 19:51:21;;;;;;;0.00;0.00;;;2.50;99.90;;;;;;5090240;28;20101;-73
2022/11/19 19:53:47;;;;;;;0.00;0.00;;;2.50;99.90;;;;;;5084908;28;20039;-79
2022/11/19 19:56:16;;;;;;;0.00;0.00;;;2.50;99.90;;;;;;5083436;28;20024;-75
2022/11/19 19:58:43;;;;;;;0.00;0.00;;;2.50;99.90;;;;;;5102568;28;20012;-77
2022/11/19 20:01:18;;;;;;;0.00;0.00;;;2.50;99.90;;;;;;5083276;28;20046;-83
2022/11/19 20:03:45;;;;;;;0.00;0.00;;;2.50;99.90;;;;;;5101092;28;20040;-74
2022/11/19 20:06:14;;;;;;;0.00;0.00;;;2.50;99.90;;;;;;5106876;28;20028;-73
2022/11/19 20:08:41;;;;;;;0.00;0.00;;;2.60;99.90;;;;;;5112026;28;20012;-76
2022/11/19 20:11:12;;;;;;;0.00;0.00;;;2.50;99.90;;;;;;5101836;28;20095;-75
2022/11/19 20:13:39;;;;;;;0.00;0.00;;;2.50;99.90;;;;;;5086113;28;20035;-74
2022/11/19 20:16:07;;;;;;;0.00;0.00;;;2.50;99.90;;;;;;5080170;28;20035;-74
2022/11/19 20:18:35;;;;;;;0.00;0.00;;;2.50;99.90;;;;;;5081710;28;20327;-74
2022/11/19 20:21:02;;;;;;;;;;;2.50;99.90;;;;;;5085127;28;20012;-74
2022/11/19 20:23:28;;;;;;;0.00;0.00;;;2.60;99.90;;;;;;5086941;28;19949;-75
2022/11/19 20:25:59;;;;;;;0.00;0.00;;;2.60;99.90;;;;;;5081703;28;20325;-74
2022/11/19 20:28:26;;;;;;;0.00;0.00;;;2.60;99.90;;;;;;5089074;28;20306;-73
2022/11/19 20:31:02;;;;;;;0.00;0.00;;;2.60;99.90;;;;;;5103875;28;20050;-73
2022/11/19 20:33:28;;;;;;;0.00;0.00;;;2.60;99.90;;;;;;5064777;28;20036;-75
2022/11/19 20:35:54;;;;;;;0.00;0.00;;;2.60;99.90;;;;;;5086378;28;20066;-73
2022/11/19 20:38:20;;;;;;;0.00;0.00;;;2.60;99.90;;;;;;5102650;28;20088;-76
2022/11/19 20:40:57;;;;;;;0.00;0.00;;;2.60;99.90;;;;;;5083254;28;20028;-74
2022/11/19 20:46:11;;;;;;;0.00;0.00;;;2.70;99.90;;;;;;5082972;28;20055;-75
2022/11/19 20:48:38;;;;;;;0.00;0.00;;;2.70;99.90;;;;;;5081914;28;20028;-76
2022/11/19 20:51:04;;;;;;;0.00;0.00;;;2.70;99.90;;;;;;5063710;28;20016;-73
2022/11/19 20:53:30;;;;;;;0.00;0.00;;;2.70;99.90;;;;;;5083819;28;20020;-74
2022/11/19 20:55:56;;;;;;;0.00;0.00;;;2.70;99.90;;;;;;5060825;28;20025;-78
2022/11/19 20:58:23;;;;;;;0.00;0.00;;;2.80;99.90;;;;;;5047998;28;20031;-74
2022/11/19 21:00:48;;;;;;;0.00;0.00;;;2.70;99.90;;;;;;5055005;28;20021;-75
2022/11/19 21:03:14;;;;;;;0.00;0.00;;;2.70;99.90;;;;;;5050984;28;20066;-77
2022/11/19 21:05:40;;;;;;;0.00;0.00;;;2.80;99.90;;;;;;5054148;28;20308;-75
2022/11/19 21:08:06;;;;;;;0.00;0.00;;;2.70;99.90;;;;;;5067050;28;20079;-79
2022/11/19 21:10:32;;;;;;;0.00;0.00;;;2.80;99.90;;;;;;5070045;28;20197;-74
2022/11/19 21:13:02;;;;;;;0.00;0.00;;;2.80;99.90;;;;;;5049666;28;20024;-74
2022/11/19 21:15:32;;;;;;;0.00;0.00;;;2.80;99.90;;;;;;5049243;28;20030;-74
2022/11/19 21:17:58;;;;;;;0.00;0.00;;;2.80;99.90;;;;;;5049682;28;20105;-75
2022/11/19 21:20:24;;;;;;;0.00;0.00;;;2.80;99.90;;;;;;5049117;28;20020;-76
2022/11/19 21:22:51;;;;;;;0.00;0.00;;;2.80;99.90;;;;;;5069378;28;20044;-76
2022/11/19 21:25:17;;;;;;;0.00;0.00;;;2.80;99.90;;;;;;5051116;28;20076;-75
2022/11/19 21:27:43;;;;;;;0.00;0.00;;;2.80;99.90;;;;;;5055062;28;20025;-76
2022/11/19 21:30:11;;;;;;;0.00;0.00;;;2.80;99.90;;;;;;5052115;28;20025;-74
2022/11/19 21:32:37;;;;;;;0.00;0.00;;;2.80;99.90;;;;;;5047755;28;20059;-74
2022/11/19 21:35:03;;;;;;;0.00;0.00;;;2.80;99.90;;;;;;5048605;28;20348;-72
2022/11/19 21:37:29;;;;;;;0.00;0.00;;;2.80;99.90;;;;;;5048777;28;20027;-73
2022/11/19 21:39:55;;;;;;;0.00;0.00;;;2.70;99.90;;;;;;5049160;28;20092;-77
2022/11/19 21:42:21;;;;;;;0.00;0.00;;;2.70;99.90;;;;;;5053071;28;20029;-73
2022/11/19 21:44:47;;;;;;;0.00;0.00;;;2.80;99.90;;;;;;5074604;28;20189;-73
2022/11/19 21:47:13;;;;;;;0.00;0.00;;;2.80;99.90;;;;;;5053559;28;20031;-74
2022/11/19 21:49:39;;;;;;;0.00;0.00;;;3.00;99.90;;;;;;5071284;28;20045;-74
2022/11/19 21:52:05;;;;;;;0.00;0.00;;;2.70;99.90;;;;;;5047643;28;20024;-75
2022/11/19 21:54:30;;;;;;;0.00;0.00;;;2.70;99.90;;;;;;5049368;28;20224;-75
2022/11/19 21:56:56;;;;;;;0.00;0.00;;;2.80;99.90;;;;;;5049492;28;20085;-76
2022/11/19 21:59:22;;;;;;;0.00;0.00;;;2.70;99.90;;;;;;5046503;28;20017;-73
2022/11/19 22:01:47;;;;;;;0.00;0.00;;;2.70;99.90;;;;;;5043637;28;20017;-74
2022/11/19 22:04:14;;;;;;;0.00;0.00;;;2.70;99.90;;;;;;5064894;28;20028;-74
2022/11/19 22:06:41;;;;;;;0.00;0.00;;;2.70;99.90;;;;;;5048691;28;20131;-75
2022/11/19 22:09:06;;;;;;;0.00;0.00;;;2.70;99.90;;;;;;5051404;28;20036;-75
2022/11/19 22:11:32;;;;;;;0.00;0.00;;;2.50;99.90;;;;;;5066550;28;20202;-74
2022/11/19 22:14:03;;;;;;;0.00;0.00;;;2.60;99.90;;;;;;5068170;28;20326;-74
2022/11/19 22:16:32;;;;;;;0.00;0.00;;;2.60;99.90;;;;;;5064503;28;20017;-74
2022/11/19 22:18:57;;;;;;;0.00;0.00;;;2.60;99.90;;;;;;5046367;28;20020;-74
2022/11/19 22:21:25;;;;;;;0.00;0.00;;;2.60;99.90;;;;;;5067852;28;20044;-75
2022/11/19 22:23:51;;;;;;;0.00;0.00;;;2.60;99.90;;;;;;5052037;28;20043;-75
2022/11/19 22:26:17;;;;;;;0.00;0.00;;;2.60;99.90;;;;;;5049959;28;20109;-74
2022/11/19 22:28:43;;;;;;;0.00;0.00;;;2.70;99.90;;;;;;5047875;28;20028;-74
2022/11/19 22:31:09;;;;;;;0.00;0.00;;;2.60;99.90;;;;;;5050756;28;20021;-75
2022/11/19 22:33:38;;;;;;;0.00;0.00;;;2.50;99.90;;;;;;5047960;28;20025;-74
2022/11/19 22:36:06;;;;;;;0.00;0.00;;;2.50;99.90;;;;;;5049528;28;20088;-74
2022/11/19 22:38:34;;;;;;;0.00;0.00;;;2.60;99.90;;;;;;5064769;28;20323;-74
2022/11/19 22:41:11;;;;;;;0.00;0.00;;;2.60;99.90;;;;;;5048750;28;20319;-76
2022/11/19 22:43:38;;;;;;;0.00;0.00;;;2.60;99.90;;;;;;5054027;28;20186;-75
2022/11/19 22:46:05;;;;;;;0.00;0.00;;;2.70;99.90;;;;;;5082061;28;20329;-75
2022/11/19 22:48:32;;;;;;;0.00;0.00;;;2.70;99.90;;;;;;5087047;28;20295;-75
2022/11/19 22:50:58;;;;;;;0.00;0.00;;;2.70;99.90;;;;;;5086974;28;20292;-75
2022/11/19 22:53:24;;;;;;;0.00;0.00;;;2.80;99.90;;;;;;5084615;28;20035;-74
2022/11/19 22:55:50;;;;;;;0.00;0.00;;;2.80;99.90;;;;;;5083070;28;20051;-74
2022/11/19 22:58:16;;;;;;;0.00;0.00;;;2.70;99.90;;;;;;5089120;28;20540;-75
2022/11/19 23:00:44;;;;;;;0.00;0.00;;;2.80;99.90;;;;;;5087861;28;20034;-74
2022/11/19 23:03:11;;;;;;;0.00;0.00;;;2.80;99.90;;;;;;5088250;28;20060;-75
2022/11/19 23:05:37;;;;;;;0.00;0.00;;;2.80;99.90;;;;;;5084081;28;20215;-76
2022/11/19 23:08:04;;;;;;;0.00;0.00;;;2.80;99.90;;;;;;5088094;28;20039;-74
2022/11/19 23:10:32;;;;;;;0.00;0.00;;;2.80;99.90;;;;;;5093154;28;20034;-74
2022/11/19 23:16:17;;;;;;;0.00;0.00;;;2.80;99.90;;;;;;5083167;28;20062;-74
2022/11/19 23:18:46;;;;;;;0.00;0.00;;;2.80;99.90;;;;;;5074647;28;20028;-77
2022/11/19 23:21:12;;;;;;;;;;;2.80;99.90;;;;;;5085574;28;20028;-74
2022/11/19 23:23:38;;;;;;;0.00;0.00;;;2.90;99.90;;;;;;5082784;28;19912;-75
2022/11/19 23:26:05;;;;;;;0.00;0.00;;;2.80;99.90;;;;;;5086956;28;20036;-77
2022/11/19 23:28:33;;;;;;;0.00;0.00;;;2.80;99.90;;;;;;5092922;28;20027;-75
2022/11/19 23:31:04;;;;;;;0.00;0.00;;;2.80;99.90;;;;;;5088539;28;20012;-76
2022/11/19 23:33:30;;;;;;;0.00;0.00;;;2.70;99.90;;;;;;5085660;28;20053;-74
2022/11/19 23:36:00;;;;;;;0.00;0.00;;;2.70;99.90;;;;;;5086805;28;20020;-74
2022/11/19 23:38:26;;;;;;;0.00;0.00;;;2.70;99.90;;;;;;5085172;28;20028;-77
2022/11/19 23:40:59;;;;;;;0.00;0.00;;;2.70;99.90;;;;;;5085271;28;20023;-73
2022/11/19 23:43:26;;;;;;;0.00;0.00;;;2.60;99.90;;;;;;5080083;28;20063;-74
2022/11/19 23:45:52;;;;;;;0.00;0.00;;;2.70;99.90;;;;;;5068756;28;20402;-74
2022/11/19 23:48:18;;;;;;;0.00;0.00;;;2.70;99.90;;;;;;5066185;28;20029;-76
2022/11/19 23:50:43;;;;;;;0.00;0.00;;;2.70;99.90;;;;;;5045827;28;20092;-73
2022/11/19 23:53:09;;;;;;;0.00;0.00;;;2.70;99.90;;;;;;5063140;28;20036;-74
2022/11/19 23:55:34;;;;;;;0.00;0.00;;;2.70;99.90;;;;;;5042072;28;20032;-74
2022/11/19 23:58:00;;;;;;;0.00;0.00;;;2.60;99.90;;;;;;5048103;28;20084;-74
